createdAt,value
2017-05-01T00:00:55.455Z,0
2017-05-01T00:01:55.455Z,0
2017-05-01T00:02:55.424Z,0
2017-05-01T00:03:55.167Z,0
2017-05-01T00:04:55.121Z,0
2017-05-01T00:05:55.430Z,0
2017-05-01T00:06:55.437Z,0
2017-05-01T00:07:55.446Z,0
2017-05-01T00:08:55.191Z,0
2017-05-01T00:09:55.518Z,0
2017-05-01T00:10:55.511Z,0
2017-05-01T00:11:55.515Z,0
2017-05-01T00:12:55.163Z,0
2017-05-01T00:13:55.479Z,0
2017-05-01T00:14:55.546Z,0
2017-05-01T00:15:55.230Z,0
2017-05-01T00:16:55.546Z,0
2017-05-01T00:17:55.508Z,0
2017-05-01T00:18:55.514Z,0
2017-05-01T00:19:55.564Z,0
2017-05-01T00:20:55.520Z,0
2017-05-01T00:21:55.212Z,0
2017-05-01T00:22:55.529Z,0
2017-05-01T00:23:55.589Z,0
2017-05-01T00:24:55.599Z,0
2017-05-01T00:25:55.597Z,0
2017-05-01T00:26:55.607Z,0
2017-05-01T00:27:55.560Z,0
2017-05-01T00:28:55.573Z,0
2017-05-01T00:29:55.576Z,0
2017-05-01T00:30:55.317Z,0
2017-05-01T00:31:55.268Z,0
2017-05-01T00:32:55.379Z,0
2017-05-01T00:33:55.608Z,0
2017-05-01T00:34:54.978Z,0
2017-05-01T00:35:54.981Z,0
2017-05-01T00:36:55.298Z,0
2017-05-01T00:37:55.670Z,0
2017-05-01T00:38:55.672Z,0
2017-05-01T00:39:55.632Z,0
2017-05-01T00:40:55.319Z,0
2017-05-01T00:41:55.327Z,0
2017-05-01T00:42:55.342Z,0
2017-05-01T00:43:55.955Z,0
2017-05-01T00:44:55.708Z,0
2017-05-01T00:45:55.037Z,0
2017-05-01T00:46:55.664Z,0
2017-05-01T00:47:55.463Z,0
2017-05-01T00:48:55.685Z,0
2017-05-01T00:49:55.735Z,0
2017-05-01T00:50:55.690Z,0
2017-05-01T00:51:55.743Z,0
2017-05-01T00:52:55.742Z,0
2017-05-01T00:53:55.712Z,0
2017-05-01T00:54:55.410Z,0
2017-05-01T00:55:55.403Z,0
2017-05-01T00:56:55.876Z,0
2017-05-01T00:57:55.474Z,0
2017-05-01T00:58:55.733Z,0
2017-05-01T00:59:55.742Z,0
2017-05-01T01:00:55.432Z,0
2017-05-01T01:01:55.441Z,0
2017-05-01T01:02:55.759Z,0
2017-05-01T01:03:55.772Z,0
2017-05-01T01:04:55.509Z,0
2017-05-01T01:05:56.109Z,0
2017-05-01T01:06:55.467Z,0
2017-05-01T01:07:55.529Z,0
2017-05-01T01:08:55.803Z,0
2017-05-01T01:09:55.546Z,0
2017-05-01T01:10:55.801Z,0
2017-05-01T01:11:55.810Z,0
2017-05-01T01:12:55.820Z,0
2017-05-01T01:13:55.830Z,0
2017-05-01T01:14:55.833Z,0
2017-05-01T01:15:55.879Z,0
2017-05-01T01:16:55.835Z,0
2017-05-01T01:17:55.846Z,0
2017-05-01T01:18:55.900Z,0
2017-05-01T01:19:55.593Z,0
2017-05-01T01:20:55.547Z,0
2017-05-01T01:21:55.555Z,0
2017-05-01T01:22:55.869Z,0
2017-05-01T01:23:55.614Z,0
2017-05-01T01:24:55.572Z,0
2017-05-01T01:25:55.884Z,0
2017-05-01T01:26:55.585Z,0
2017-05-01T01:27:55.586Z,0
2017-05-01T01:28:55.596Z,0
2017-05-01T01:29:55.914Z,0
2017-05-01T01:30:55.653Z,0
2017-05-01T01:31:55.918Z,0
2017-05-01T01:32:55.663Z,0
2017-05-01T01:33:55.936Z,0
2017-05-01T01:34:56.002Z,0
2017-05-01T01:35:55.943Z,0
2017-05-01T01:36:55.635Z,0
2017-05-01T01:37:55.950Z,0
2017-05-01T01:38:55.647Z,0
2017-05-01T01:39:55.657Z,0
2017-05-01T01:40:56.019Z,0
2017-05-01T01:41:55.667Z,0
2017-05-01T01:42:55.672Z,0
2017-05-01T01:43:55.676Z,0
2017-05-01T01:44:55.990Z,0
2017-05-01T01:45:56.097Z,0
2017-05-01T01:46:55.376Z,0
2017-05-01T01:47:55.748Z,0
2017-05-01T01:48:55.707Z,0
2017-05-01T01:49:56.030Z,0
2017-05-01T01:50:55.710Z,0
2017-05-01T01:51:55.717Z,0
2017-05-01T01:52:56.035Z,0
2017-05-01T01:53:56.046Z,0
2017-05-01T01:54:55.784Z,0
2017-05-01T01:55:56.100Z,0
2017-05-01T01:56:56.114Z,0
2017-05-01T01:57:56.068Z,0
2017-05-01T01:58:55.758Z,0
2017-05-01T01:59:56.163Z,0
2017-05-01T02:00:55.456Z,0
2017-05-01T02:01:55.772Z,0
2017-05-01T02:02:56.091Z,0
2017-05-01T02:03:56.148Z,0
2017-05-01T02:04:56.098Z,0
2017-05-01T02:05:56.103Z,0
2017-05-01T02:06:56.162Z,0
2017-05-01T02:07:56.170Z,0
2017-05-01T02:08:55.501Z,0
2017-05-01T02:09:56.180Z,0
2017-05-01T02:10:56.141Z,0
2017-05-01T02:11:55.524Z,0
2017-05-01T02:12:55.530Z,0
2017-05-01T02:13:56.157Z,0
2017-05-01T02:14:56.154Z,0
2017-05-01T02:15:55.595Z,0
2017-05-01T02:16:56.255Z,0
2017-05-01T02:17:55.859Z,0
2017-05-01T02:18:55.868Z,0
2017-05-01T02:19:56.183Z,0
2017-05-01T02:20:55.929Z,0
2017-05-01T02:21:55.937Z,0
2017-05-01T02:22:55.629Z,0
2017-05-01T02:23:55.898Z,0
2017-05-01T02:24:55.899Z,0
2017-05-01T02:25:56.222Z,0
2017-05-01T02:26:56.274Z,0
2017-05-01T02:27:56.231Z,0
2017-05-01T02:28:56.238Z,0
2017-05-01T02:29:55.936Z,0
2017-05-01T02:30:55.981Z,0
2017-05-01T02:31:55.994Z,0
2017-05-01T02:32:56.259Z,0
2017-05-01T02:33:56.269Z,0
2017-05-01T02:34:56.324Z,0
2017-05-01T02:35:56.273Z,0
2017-05-01T02:36:56.273Z,0
2017-05-01T02:37:56.279Z,0
2017-05-01T02:38:56.290Z,0
2017-05-01T02:39:56.301Z,0
2017-05-01T02:40:56.352Z,0
2017-05-01T02:41:56.305Z,0
2017-05-01T02:42:56.054Z,0
2017-05-01T02:43:56.007Z,0
2017-05-01T02:44:55.393Z,0
2017-05-01T02:45:55.703Z,0
2017-05-01T02:46:56.022Z,0
2017-05-01T02:47:56.081Z,0
2017-05-01T02:48:56.033Z,0
2017-05-01T02:49:56.046Z,0
2017-05-01T02:50:56.042Z,0
2017-05-01T02:51:56.097Z,0
2017-05-01T02:52:56.058Z,0
2017-05-01T02:53:56.374Z,0
2017-05-01T02:54:56.385Z,0
2017-05-01T02:55:56.430Z,0
2017-05-01T02:56:55.766Z,0
2017-05-01T02:57:56.448Z,0
2017-05-01T02:58:56.093Z,0
2017-05-01T02:59:56.408Z,0
2017-05-01T03:00:56.096Z,0
2017-05-01T03:01:56.101Z,0
2017-05-01T03:02:56.470Z,0
2017-05-01T03:03:56.426Z,0
2017-05-01T03:04:56.439Z,0
2017-05-01T03:05:56.485Z,0
2017-05-01T03:06:56.441Z,0
2017-05-01T03:07:56.137Z,0
2017-05-01T03:08:56.503Z,0
2017-05-01T03:09:56.456Z,0
2017-05-01T03:10:56.154Z,0
2017-05-01T03:11:56.604Z,0
2017-05-01T03:12:56.575Z,0
2017-05-01T03:13:56.176Z,0
2017-05-01T03:14:55.878Z,0
2017-05-01T03:15:56.180Z,0
2017-05-01T03:16:56.188Z,0
2017-05-01T03:17:56.499Z,0
2017-05-01T03:18:56.566Z,0
2017-05-01T03:19:56.583Z,0
2017-05-01T03:20:56.206Z,0
2017-05-01T03:21:56.525Z,0
2017-05-01T03:22:56.525Z,0
2017-05-01T03:23:55.910Z,0
2017-05-01T03:24:56.231Z,0
2017-05-01T03:25:56.544Z,0
2017-05-01T03:26:56.242Z,0
2017-05-01T03:27:55.934Z,0
2017-05-01T03:28:56.251Z,0
2017-05-01T03:29:56.565Z,0
2017-05-01T03:30:56.573Z,0
2017-05-01T03:31:56.581Z,0
2017-05-01T03:32:56.587Z,0
2017-05-01T03:33:56.022Z,0
2017-05-01T03:34:56.598Z,0
2017-05-01T03:35:56.599Z,0
2017-05-01T03:36:56.706Z,0
2017-05-01T03:37:56.308Z,0
2017-05-01T03:38:56.408Z,0
2017-05-01T03:39:56.674Z,0
2017-05-01T03:40:56.636Z,0
2017-05-01T03:41:56.325Z,0
2017-05-01T03:42:56.331Z,0
2017-05-01T03:43:56.389Z,0
2017-05-01T03:44:56.383Z,0
2017-05-01T03:45:56.656Z,0
2017-05-01T03:46:56.345Z,0
2017-05-01T03:47:56.670Z,0
2017-05-01T03:48:56.674Z,0
2017-05-01T03:49:56.684Z,0
2017-05-01T03:50:56.680Z,0
2017-05-01T03:51:56.428Z,4
2017-05-01T03:52:56.703Z,4
2017-05-01T03:53:56.748Z,4
2017-05-01T03:54:56.704Z,4
2017-05-01T03:55:56.703Z,0
2017-05-01T03:56:56.451Z,0
2017-05-01T03:57:56.722Z,4
2017-05-01T03:58:56.467Z,4
2017-05-01T03:59:56.418Z,4
2017-05-01T04:00:56.115Z,4
2017-05-01T04:01:56.790Z,4
2017-05-01T04:02:56.762Z,4
2017-05-01T04:03:56.760Z,4
2017-05-01T04:04:56.169Z,4
2017-05-01T04:05:56.761Z,8
2017-05-01T04:06:56.505Z,4
2017-05-01T04:07:56.150Z,8
2017-05-01T04:08:56.785Z,8
2017-05-01T04:09:56.784Z,8
2017-05-01T04:10:56.791Z,8
2017-05-01T04:11:56.794Z,8
2017-05-01T04:12:56.538Z,8
2017-05-01T04:13:56.494Z,12
2017-05-01T04:14:56.503Z,12
2017-05-01T04:15:56.512Z,12
2017-05-01T04:16:56.827Z,12
2017-05-01T04:17:56.835Z,16
2017-05-01T04:18:56.522Z,16
2017-05-01T04:19:56.323Z,16
2017-05-01T04:20:56.848Z,20
2017-05-01T04:21:56.896Z,16
2017-05-01T04:22:56.233Z,20
2017-05-01T04:23:56.553Z,20
2017-05-01T04:24:56.865Z,20
2017-05-01T04:25:56.876Z,24
2017-05-01T04:26:56.928Z,20
2017-05-01T04:27:56.622Z,20
2017-05-01T04:28:56.578Z,24
2017-05-01T04:29:56.902Z,24
2017-05-01T04:30:56.636Z,24
2017-05-01T04:31:56.590Z,24
2017-05-01T04:32:56.290Z,28
2017-05-01T04:33:56.600Z,28
2017-05-01T04:34:56.969Z,32
2017-05-01T04:35:56.612Z,32
2017-05-01T04:36:56.927Z,40
2017-05-01T04:37:56.628Z,40
2017-05-01T04:38:56.943Z,44
2017-05-01T04:39:56.951Z,44
2017-05-01T04:40:57.001Z,48
2017-05-01T04:41:56.957Z,52
2017-05-01T04:42:57.062Z,52
2017-05-01T04:43:57.020Z,52
2017-05-01T04:44:56.974Z,52
2017-05-01T04:45:56.667Z,56
2017-05-01T04:46:56.364Z,60
2017-05-01T04:47:56.991Z,60
2017-05-01T04:48:56.373Z,64
2017-05-01T04:49:57.052Z,64
2017-05-01T04:50:56.693Z,68
2017-05-01T04:51:56.696Z,72
2017-05-01T04:52:56.710Z,72
2017-05-01T04:53:56.448Z,76
2017-05-01T04:54:56.409Z,76
2017-05-01T04:55:56.717Z,80
2017-05-01T04:56:57.042Z,84
2017-05-01T04:57:57.057Z,88
2017-05-01T04:58:57.108Z,92
2017-05-01T04:59:56.745Z,96
2017-05-01T05:00:56.751Z,104
2017-05-01T05:01:56.525Z,108
2017-05-01T05:02:57.073Z,116
2017-05-01T05:03:56.765Z,128
2017-05-01T05:04:57.076Z,132
2017-05-01T05:05:57.093Z,140
2017-05-01T05:06:57.088Z,148
2017-05-01T05:07:57.200Z,156
2017-05-01T05:08:56.789Z,164
2017-05-01T05:09:57.110Z,172
2017-05-01T05:10:57.159Z,176
2017-05-01T05:11:57.122Z,184
2017-05-01T05:12:57.175Z,192
2017-05-01T05:13:57.137Z,196
2017-05-01T05:14:56.876Z,200
2017-05-01T05:15:57.197Z,204
2017-05-01T05:16:57.188Z,204
2017-05-01T05:17:57.148Z,208
2017-05-01T05:18:56.898Z,208
2017-05-01T05:19:57.214Z,208
2017-05-01T05:20:57.165Z,212
2017-05-01T05:21:56.862Z,212
2017-05-01T05:22:57.230Z,212
2017-05-01T05:23:57.184Z,212
2017-05-01T05:24:57.187Z,212
2017-05-01T05:25:56.937Z,216
2017-05-01T05:26:56.884Z,220
2017-05-01T05:27:56.951Z,220
2017-05-01T05:28:56.948Z,224
2017-05-01T05:29:56.903Z,228
2017-05-01T05:30:56.599Z,232
2017-05-01T05:31:56.962Z,232
2017-05-01T05:32:56.926Z,236
2017-05-01T05:33:57.344Z,244
2017-05-01T05:34:56.618Z,248
2017-05-01T05:35:56.939Z,248
2017-05-01T05:36:57.251Z,252
2017-05-01T05:37:57.397Z,252
2017-05-01T05:38:56.958Z,256
2017-05-01T05:39:57.321Z,256
2017-05-01T05:40:57.019Z,264
2017-05-01T05:41:56.965Z,264
2017-05-01T05:42:57.345Z,268
2017-05-01T05:43:56.978Z,272
2017-05-01T05:44:56.987Z,276
2017-05-01T05:45:57.043Z,280
2017-05-01T05:46:57.308Z,288
2017-05-01T05:47:57.328Z,296
2017-05-01T05:48:57.058Z,300
2017-05-01T05:49:57.335Z,308
2017-05-01T05:50:57.067Z,312
2017-05-01T05:51:57.077Z,316
2017-05-01T05:52:57.338Z,320
2017-05-01T05:53:57.357Z,324
2017-05-01T05:54:57.353Z,328
2017-05-01T05:55:57.356Z,332
2017-05-01T05:56:57.464Z,336
2017-05-01T05:57:57.381Z,340
2017-05-01T05:58:57.062Z,344
2017-05-01T05:59:57.069Z,348
2017-05-01T06:00:57.395Z,352
2017-05-01T06:01:57.079Z,356
2017-05-01T06:02:56.523Z,364
2017-05-01T06:03:57.099Z,372
2017-05-01T06:04:57.110Z,384
2017-05-01T06:05:56.841Z,396
2017-05-01T06:06:57.419Z,404
2017-05-01T06:07:57.473Z,420
2017-05-01T06:08:57.433Z,428
2017-05-01T06:09:57.490Z,440
2017-05-01T06:10:57.128Z,456
2017-05-01T06:11:57.137Z,468
2017-05-01T06:12:57.144Z,484
2017-05-01T06:13:57.459Z,500
2017-05-01T06:14:57.466Z,516
2017-05-01T06:15:57.464Z,532
2017-05-01T06:16:57.158Z,544
2017-05-01T06:17:57.164Z,568
2017-05-01T06:18:57.535Z,592
2017-05-01T06:19:57.178Z,616
2017-05-01T06:20:57.494Z,632
2017-05-01T06:21:57.245Z,636
2017-05-01T06:22:57.199Z,648
2017-05-01T06:23:56.581Z,664
2017-05-01T06:24:57.306Z,664
2017-05-01T06:25:57.273Z,648
2017-05-01T06:26:57.523Z,628
2017-05-01T06:27:56.913Z,596
2017-05-01T06:28:56.916Z,548
2017-05-01T06:29:57.339Z,512
2017-05-01T06:30:57.547Z,480
2017-05-01T06:31:57.561Z,464
2017-05-01T06:32:57.248Z,452
2017-05-01T06:33:57.257Z,464
2017-05-01T06:34:57.875Z,492
2017-05-01T06:35:56.956Z,524
2017-05-01T06:36:57.269Z,596
2017-05-01T06:37:57.332Z,596
2017-05-01T06:38:57.605Z,696
2017-05-01T06:39:57.658Z,748
2017-05-01T06:40:57.632Z,816
2017-05-01T06:41:57.613Z,840
2017-05-01T06:42:57.356Z,812
2017-05-01T06:43:57.629Z,756
2017-05-01T06:44:57.631Z,712
2017-05-01T06:45:57.642Z,680
2017-05-01T06:46:57.333Z,656
2017-05-01T06:47:57.696Z,632
2017-05-01T06:48:57.344Z,620
2017-05-01T06:49:57.670Z,608
2017-05-01T06:50:57.352Z,604
2017-05-01T06:51:57.096Z,580
2017-05-01T06:52:57.676Z,576
2017-05-01T06:53:57.732Z,572
2017-05-01T06:54:57.680Z,528
2017-05-01T06:55:57.378Z,464
2017-05-01T06:56:57.386Z,452
2017-05-01T06:57:57.393Z,460
2017-05-01T06:58:57.395Z,452
2017-05-01T06:59:57.410Z,444
2017-05-01T07:00:57.407Z,432
2017-05-01T07:01:57.412Z,388
2017-05-01T07:02:57.735Z,356
2017-05-01T07:03:57.735Z,328
2017-05-01T07:04:57.992Z,312
2017-05-01T07:05:57.791Z,292
2017-05-01T07:06:57.801Z,268
2017-05-01T07:07:57.760Z,268
2017-05-01T07:08:57.817Z,252
2017-05-01T07:09:57.457Z,244
2017-05-01T07:10:57.513Z,236
2017-05-01T07:11:57.829Z,236
2017-05-01T07:12:57.837Z,248
2017-05-01T07:13:57.843Z,244
2017-05-01T07:14:57.489Z,252
2017-05-01T07:15:57.806Z,244
2017-05-01T07:16:57.232Z,236
2017-05-01T07:17:57.831Z,220
2017-05-01T07:18:57.193Z,212
2017-05-01T07:19:57.823Z,204
2017-05-01T07:20:57.878Z,196
2017-05-01T07:21:57.520Z,196
2017-05-01T07:22:57.889Z,184
2017-05-01T07:23:57.890Z,176
2017-05-01T07:24:57.862Z,160
2017-05-01T07:25:57.592Z,152
2017-05-01T07:26:57.276Z,160
2017-05-01T07:27:57.001Z,156
2017-05-01T07:28:57.568Z,148
2017-05-01T07:29:57.880Z,160
2017-05-01T07:30:57.363Z,172
2017-05-01T07:31:56.960Z,180
2017-05-01T07:32:57.585Z,168
2017-05-01T07:33:57.903Z,156
2017-05-01T07:34:57.899Z,144
2017-05-01T07:35:57.913Z,140
2017-05-01T07:36:57.653Z,152
2017-05-01T07:37:57.661Z,164
2017-05-01T07:38:57.924Z,164
2017-05-01T07:39:57.996Z,184
2017-05-01T07:40:57.626Z,204
2017-05-01T07:41:57.938Z,220
2017-05-01T07:42:57.642Z,244
2017-05-01T07:43:57.955Z,248
2017-05-01T07:44:58.260Z,276
2017-05-01T07:45:57.702Z,288
2017-05-01T07:46:57.967Z,288
2017-05-01T07:47:57.669Z,308
2017-05-01T07:48:57.673Z,332
2017-05-01T07:49:57.984Z,344
2017-05-01T07:50:58.039Z,320
2017-05-01T07:51:57.997Z,304
2017-05-01T07:52:57.737Z,316
2017-05-01T07:53:57.397Z,308
2017-05-01T07:54:57.700Z,316
2017-05-01T07:55:58.012Z,304
2017-05-01T07:56:58.017Z,272
2017-05-01T07:57:57.717Z,240
2017-05-01T07:58:58.047Z,228
2017-05-01T07:59:58.049Z,224
2017-05-01T08:00:58.043Z,208
2017-05-01T08:01:57.742Z,220
2017-05-01T08:02:58.057Z,212
2017-05-01T08:03:57.437Z,200
2017-05-01T08:04:58.118Z,200
2017-05-01T08:05:58.088Z,192
2017-05-01T08:06:57.764Z,184
2017-05-01T08:07:57.775Z,176
2017-05-01T08:08:58.140Z,180
2017-05-01T08:09:58.144Z,180
2017-05-01T08:10:58.097Z,176
2017-05-01T08:11:58.103Z,168
2017-05-01T08:12:57.839Z,164
2017-05-01T08:13:58.113Z,160
2017-05-01T08:14:58.120Z,156
2017-05-01T08:15:58.122Z,152
2017-05-01T08:16:57.865Z,152
2017-05-01T08:17:58.138Z,160
2017-05-01T08:18:57.830Z,160
2017-05-01T08:19:58.143Z,164
2017-05-01T08:20:57.837Z,172
2017-05-01T08:21:58.158Z,176
2017-05-01T08:22:58.161Z,176
2017-05-01T08:23:57.872Z,180
2017-05-01T08:24:58.176Z,184
2017-05-01T08:25:58.173Z,176
2017-05-01T08:26:58.241Z,168
2017-05-01T08:27:58.195Z,152
2017-05-01T08:28:57.890Z,140
2017-05-01T08:29:58.213Z,144
2017-05-01T08:30:58.211Z,148
2017-05-01T08:31:57.900Z,148
2017-05-01T08:32:58.219Z,152
2017-05-01T08:33:58.008Z,156
2017-05-01T08:34:58.335Z,160
2017-05-01T08:35:57.921Z,168
2017-05-01T08:36:57.930Z,184
2017-05-01T08:37:57.945Z,192
2017-05-01T08:38:58.252Z,204
2017-05-01T08:39:57.998Z,204
2017-05-01T08:40:58.360Z,216
2017-05-01T08:41:58.271Z,228
2017-05-01T08:42:57.964Z,256
2017-05-01T08:43:58.390Z,292
2017-05-01T08:44:58.339Z,336
2017-05-01T08:45:57.978Z,384
2017-05-01T08:46:57.983Z,424
2017-05-01T08:47:58.300Z,444
2017-05-01T08:48:58.332Z,452
2017-05-01T08:49:58.315Z,452
2017-05-01T08:50:58.316Z,452
2017-05-01T08:51:58.059Z,452
2017-05-01T08:52:58.334Z,468
2017-05-01T08:53:58.024Z,484
2017-05-01T08:54:58.341Z,492
2017-05-01T08:55:58.331Z,504
2017-05-01T08:56:58.041Z,504
2017-05-01T08:57:58.095Z,512
2017-05-01T08:58:58.367Z,532
2017-05-01T08:59:58.059Z,540
2017-05-01T09:00:58.375Z,544
2017-05-01T09:01:58.387Z,536
2017-05-01T09:02:58.071Z,520
2017-05-01T09:03:58.455Z,504
2017-05-01T09:04:58.399Z,492
2017-05-01T09:05:57.778Z,480
2017-05-01T09:06:58.099Z,472
2017-05-01T09:07:58.101Z,468
2017-05-01T09:08:58.109Z,464
2017-05-01T09:09:58.425Z,460
2017-05-01T09:10:58.118Z,444
2017-05-01T09:11:58.125Z,428
2017-05-01T09:12:58.444Z,412
2017-05-01T09:13:58.502Z,396
2017-05-01T09:14:58.511Z,404
2017-05-01T09:15:57.585Z,408
2017-05-01T09:16:58.477Z,412
2017-05-01T09:17:58.523Z,428
2017-05-01T09:18:58.173Z,484
2017-05-01T09:19:58.479Z,512
2017-05-01T09:20:57.917Z,516
2017-05-01T09:21:58.179Z,496
2017-05-01T09:22:58.190Z,488
2017-05-01T09:23:58.505Z,500
2017-05-01T09:24:58.513Z,508
2017-05-01T09:25:58.260Z,520
2017-05-01T09:26:58.568Z,516
2017-05-01T09:27:58.528Z,520
2017-05-01T09:28:58.532Z,488
2017-05-01T09:29:58.232Z,476
2017-05-01T09:30:58.542Z,476
2017-05-01T09:31:58.545Z,468
2017-05-01T09:32:58.562Z,460
2017-05-01T09:33:58.567Z,456
2017-05-01T09:34:58.255Z,452
2017-05-01T09:35:58.573Z,456
2017-05-01T09:36:58.626Z,460
2017-05-01T09:37:58.279Z,468
2017-05-01T09:38:58.644Z,472
2017-05-01T09:39:57.977Z,492
2017-05-01T09:40:58.337Z,516
2017-05-01T09:41:58.909Z,528
2017-05-01T09:42:58.665Z,540
2017-05-01T09:43:58.000Z,548
2017-05-01T09:44:58.627Z,552
2017-05-01T09:45:58.673Z,560
2017-05-01T09:46:58.106Z,576
2017-05-01T09:47:58.743Z,580
2017-05-01T09:48:58.387Z,588
2017-05-01T09:49:58.703Z,588
2017-05-01T09:50:58.398Z,600
2017-05-01T09:51:58.036Z,644
2017-05-01T09:52:58.714Z,672
2017-05-01T09:53:58.726Z,692
2017-05-01T09:54:58.064Z,692
2017-05-01T09:55:58.401Z,660
2017-05-01T09:56:58.377Z,656
2017-05-01T09:57:58.698Z,676
2017-05-01T09:58:58.758Z,676
2017-05-01T09:59:58.715Z,668
2017-05-01T10:00:58.450Z,676
2017-05-01T10:01:58.714Z,684
2017-05-01T10:02:58.461Z,676
2017-05-01T10:03:58.472Z,672
2017-05-01T10:04:58.422Z,664
2017-05-01T10:05:58.790Z,656
2017-05-01T10:06:58.124Z,656
2017-05-01T10:07:58.447Z,660
2017-05-01T10:08:58.442Z,668
2017-05-01T10:09:58.142Z,668
2017-05-01T10:10:58.502Z,656
2017-05-01T10:11:58.820Z,656
2017-05-01T10:12:58.467Z,632
2017-05-01T10:13:58.216Z,648
2017-05-01T10:14:58.477Z,648
2017-05-01T10:15:58.488Z,632
2017-05-01T10:16:58.484Z,620
2017-05-01T10:17:58.550Z,612
2017-05-01T10:18:58.551Z,632
2017-05-01T10:19:58.509Z,640
2017-05-01T10:20:58.512Z,636
2017-05-01T10:21:58.510Z,624
2017-05-01T10:22:58.520Z,608
2017-05-01T10:23:58.627Z,600
2017-05-01T10:24:58.895Z,596
2017-05-01T10:25:58.537Z,592
2017-05-01T10:26:58.857Z,592
2017-05-01T10:27:58.917Z,596
2017-05-01T10:28:58.878Z,596
2017-05-01T10:29:58.611Z,592
2017-05-01T10:30:58.560Z,584
2017-05-01T10:31:58.885Z,584
2017-05-01T10:32:58.576Z,576
2017-05-01T10:33:58.684Z,576
2017-05-01T10:34:58.905Z,576
2017-05-01T10:35:58.601Z,580
2017-05-01T10:36:58.961Z,584
2017-05-01T10:37:58.610Z,576
2017-05-01T10:38:58.925Z,560
2017-05-01T10:39:58.931Z,556
2017-05-01T10:40:58.673Z,544
2017-05-01T10:41:58.627Z,520
2017-05-01T10:42:59.001Z,500
2017-05-01T10:43:58.354Z,496
2017-05-01T10:44:58.644Z,504
2017-05-01T10:45:58.965Z,516
2017-05-01T10:46:58.710Z,536
2017-05-01T10:47:58.668Z,548
2017-05-01T10:48:58.672Z,568
2017-05-01T10:49:58.679Z,604
2017-05-01T10:50:59.041Z,620
2017-05-01T10:51:58.687Z,636
2017-05-01T10:52:58.697Z,656
2017-05-01T10:53:58.733Z,668
2017-05-01T10:54:59.016Z,688
2017-05-01T10:55:59.019Z,696
2017-05-01T10:56:58.766Z,680
2017-05-01T10:57:59.086Z,688
2017-05-01T10:58:58.727Z,716
2017-05-01T10:59:58.738Z,736
2017-05-01T11:00:59.051Z,748
2017-05-01T11:01:58.438Z,748
2017-05-01T11:02:59.224Z,732
2017-05-01T11:03:58.444Z,712
2017-05-01T11:04:58.769Z,716
2017-05-01T11:05:59.078Z,740
2017-05-01T11:06:58.467Z,756
2017-05-01T11:07:59.205Z,788
2017-05-01T11:08:59.152Z,808
2017-05-01T11:09:59.112Z,828
2017-05-01T11:10:58.540Z,844
2017-05-01T11:11:58.497Z,860
2017-05-01T11:12:58.556Z,868
2017-05-01T11:13:58.817Z,884
2017-05-01T11:14:58.825Z,900
2017-05-01T11:15:59.194Z,908
2017-05-01T11:16:58.521Z,920
2017-05-01T11:17:59.156Z,928
2017-05-01T11:18:58.849Z,912
2017-05-01T11:19:59.159Z,892
2017-05-01T11:20:58.862Z,856
2017-05-01T11:21:58.864Z,880
2017-05-01T11:22:59.183Z,872
2017-05-01T11:23:59.199Z,856
2017-05-01T11:24:58.619Z,856
2017-05-01T11:25:58.578Z,852
2017-05-01T11:26:58.894Z,860
2017-05-01T11:27:59.221Z,852
2017-05-01T11:28:59.224Z,840
2017-05-01T11:29:59.012Z,832
2017-05-01T11:30:59.022Z,816
2017-05-01T11:31:59.232Z,800
2017-05-01T11:32:59.293Z,772
2017-05-01T11:33:58.624Z,768
2017-05-01T11:34:59.252Z,760
2017-05-01T11:35:59.404Z,728
2017-05-01T11:36:58.952Z,688
2017-05-01T11:37:59.322Z,688
2017-05-01T11:38:59.288Z,672
2017-05-01T11:39:59.025Z,632
2017-05-01T11:40:59.075Z,624
2017-05-01T11:41:58.986Z,612
2017-05-01T11:42:59.304Z,564
2017-05-01T11:43:59.358Z,512
2017-05-01T11:44:59.319Z,484
2017-05-01T11:45:59.009Z,484
2017-05-01T11:46:59.068Z,480
2017-05-01T11:47:59.343Z,460
2017-05-01T11:48:59.028Z,460
2017-05-01T11:49:59.401Z,484
2017-05-01T11:50:58.733Z,504
2017-05-01T11:51:59.348Z,508
2017-05-01T11:52:59.468Z,528
2017-05-01T11:53:59.367Z,572
2017-05-01T11:54:59.375Z,608
2017-05-01T11:55:59.378Z,596
2017-05-01T11:56:59.390Z,572
2017-05-01T11:57:59.131Z,568
2017-05-01T11:58:58.823Z,568
2017-05-01T11:59:59.454Z,560
2017-05-01T12:00:59.461Z,552
2017-05-01T12:01:58.861Z,548
2017-05-01T12:02:59.163Z,548
2017-05-01T12:03:59.477Z,536
2017-05-01T12:04:59.434Z,520
2017-05-01T12:05:59.435Z,508
2017-05-01T12:06:59.546Z,496
2017-05-01T12:07:58.880Z,476
2017-05-01T12:08:59.511Z,456
2017-05-01T12:09:59.461Z,432
2017-05-01T12:10:59.488Z,412
2017-05-01T12:11:59.483Z,408
2017-05-01T12:12:59.173Z,388
2017-05-01T12:13:59.547Z,372
2017-05-01T12:14:59.597Z,376
2017-05-01T12:15:59.550Z,388
2017-05-01T12:16:59.566Z,388
2017-05-01T12:17:59.583Z,392
2017-05-01T12:18:59.519Z,396
2017-05-01T12:19:59.577Z,408
2017-05-01T12:20:59.578Z,416
2017-05-01T12:21:59.529Z,420
2017-05-01T12:22:58.928Z,408
2017-05-01T12:23:59.543Z,408
2017-05-01T12:24:59.586Z,412
2017-05-01T12:25:59.563Z,420
2017-05-01T12:26:59.563Z,424
2017-05-01T12:27:59.579Z,416
2017-05-01T12:28:59.260Z,416
2017-05-01T12:29:59.378Z,408
2017-05-01T12:30:59.274Z,400
2017-05-01T12:31:59.632Z,400
2017-05-01T12:32:59.604Z,404
2017-05-01T12:33:59.352Z,420
2017-05-01T12:34:59.619Z,432
2017-05-01T12:35:59.623Z,428
2017-05-01T12:36:59.311Z,428
2017-05-01T12:37:59.648Z,436
2017-05-01T12:38:59.329Z,452
2017-05-01T12:39:59.340Z,464
2017-05-01T12:40:59.386Z,464
2017-05-01T12:41:59.651Z,464
2017-05-01T12:42:59.664Z,460
2017-05-01T12:43:59.408Z,444
2017-05-01T12:44:59.677Z,444
2017-05-01T12:45:59.686Z,436
2017-05-01T12:46:59.689Z,440
2017-05-01T12:47:59.385Z,436
2017-05-01T12:48:59.069Z,432
2017-05-01T12:49:59.390Z,416
2017-05-01T12:50:59.706Z,412
2017-05-01T12:51:59.771Z,404
2017-05-01T12:52:58.835Z,408
2017-05-01T12:53:59.780Z,420
2017-05-01T12:54:59.738Z,428
2017-05-01T12:55:59.742Z,444
2017-05-01T12:56:59.432Z,448
2017-05-01T12:57:59.140Z,444
2017-05-01T12:58:59.803Z,456
2017-05-01T12:59:59.867Z,492
2017-05-01T13:00:59.780Z,520
2017-05-01T13:01:59.825Z,560
2017-05-01T13:02:59.832Z,600
2017-05-01T13:03:59.837Z,640
2017-05-01T13:04:59.840Z,668
2017-05-01T13:05:59.532Z,688
2017-05-01T13:06:59.511Z,696
2017-05-01T13:07:59.812Z,708
2017-05-01T13:08:59.870Z,708
2017-05-01T13:09:59.511Z,712
2017-05-01T13:10:59.824Z,716
2017-05-01T13:11:59.831Z,716
2017-05-01T13:12:59.530Z,724
2017-05-01T13:13:59.579Z,732
2017-05-01T13:14:59.228Z,748
2017-05-01T13:15:59.542Z,752
2017-05-01T13:16:59.597Z,740
2017-05-01T13:17:59.920Z,740
2017-05-01T13:18:59.873Z,744
2017-05-01T13:19:59.576Z,724
2017-05-01T13:20:59.931Z,708
2017-05-01T13:21:59.894Z,716
2017-05-01T13:22:59.996Z,732
2017-05-01T13:23:59.606Z,728
2017-05-01T13:24:59.695Z,680
2017-05-01T13:25:59.909Z,632
2017-05-01T13:26:59.615Z,612
2017-05-01T13:27:59.304Z,616
2017-05-01T13:29:00.232Z,624
2017-05-01T13:29:59.931Z,612
2017-05-01T13:30:59.942Z,608
2017-05-01T13:31:59.371Z,636
2017-05-01T13:32:59.955Z,664
2017-05-01T13:33:59.648Z,688
2017-05-01T13:34:59.705Z,708
2017-05-01T13:35:59.660Z,692
2017-05-01T13:37:00.021Z,680
2017-05-01T13:37:59.675Z,688
2017-05-01T13:38:59.675Z,684
2017-05-01T13:39:59.991Z,688
2017-05-01T13:40:59.687Z,712
2017-05-01T13:41:59.696Z,736
2017-05-01T13:42:59.804Z,748
2017-05-01T13:44:00.025Z,756
2017-05-01T13:45:00.038Z,748
2017-05-01T13:45:59.413Z,708
2017-05-01T13:47:00.082Z,680
2017-05-01T13:47:59.734Z,636
2017-05-01T13:49:00.058Z,596
2017-05-01T13:49:59.792Z,564
2017-05-01T13:50:59.752Z,552
2017-05-01T13:51:59.806Z,556
2017-05-01T13:53:00.133Z,568
2017-05-01T13:54:00.077Z,568
2017-05-01T13:54:59.873Z,552
2017-05-01T13:56:00.140Z,532
2017-05-01T13:56:59.784Z,520
2017-05-01T13:57:59.896Z,520
2017-05-01T13:59:00.108Z,532
2017-05-01T14:00:00.169Z,544
2017-05-01T14:01:00.165Z,556
2017-05-01T14:02:00.172Z,572
2017-05-01T14:03:00.132Z,580
2017-05-01T14:03:59.828Z,588
2017-05-01T14:05:00.151Z,584
2017-05-01T14:05:59.838Z,560